Time;durP1;ratioP1;P1;durP2;ratioP2;P2;SDS_P1;SDS_P2;PMS_P1;PMS_P2;Temp;Humidity;BMP_temperature;BMP_pressure;BME280_temperature;BME280_humidity;BME280_pressure;Samples;Min_cycle;Max_cycle;Signal;HPM_P1;HPM_P2
2022/07/20 00:00:06;;;;;;;7.15;3.28;;;16.20;99.90;;;;;;5268463;28;20063;-74
2022/07/20 00:02:37;;;;;;;6.55;3.42;;;16.10;99.90;;;;;;5268543;28;20138;-74
2022/07/20 00:05:08;;;;;;;6.85;3.28;;;16.00;99.90;;;;;;5268509;28;20016;-75
2022/07/20 00:07:39;;;;;;;6.75;3.63;;;16.20;99.90;;;;;;5268604;28;20087;-74
2022/07/20 00:12:59;;;;;;;5.43;3.35;;;16.10;99.90;;;;;;5268958;28;20047;-74
2022/07/20 00:15:30;;;;;;;8.88;3.83;;;15.90;99.90;;;;;;5268301;28;20028;-75
2022/07/20 00:18:02;;;;;;;6.82;3.65;;;16.20;99.90;;;;;;5268427;28;20105;-74
2022/07/20 00:20:33;;;;;;;7.78;3.50;;;16.40;99.90;;;;;;5268126;28;20519;-75
2022/07/20 00:23:04;;;;;;;6.22;3.35;;;16.30;99.90;;;;;;5268209;28;20111;-74
2022/07/20 00:25:35;;;;;;;5.00;3.45;;;16.30;99.90;;;;;;5268270;28;20020;-75
2022/07/20 00:28:06;;;;;;;5.03;3.10;;;16.20;99.90;;;;;;5268274;28;20379;-73
2022/07/20 00:30:37;;;;;;;6.75;3.60;;;16.40;99.90;;;;;;5268221;28;20036;-74
2022/07/20 00:33:08;;;;;;;7.18;3.08;;;16.30;99.90;;;;;;5268321;28;20024;-74
2022/07/20 00:35:40;;;;;;;7.32;3.47;;;16.50;99.90;;;;;;5268085;28;20032;-74
2022/07/20 00:38:12;;;;;;;7.75;3.60;;;16.40;99.90;;;;;;5268265;28;20012;-74
2022/07/20 00:40:43;;;;;;;8.00;3.20;;;16.20;99.90;;;;;;5267957;28;20024;-74
2022/07/20 00:43:14;;;;;;;5.60;3.08;;;16.30;99.90;;;;;;5249909;28;20031;-73
2022/07/20 00:45:46;;;;;;;6.28;3.00;;;16.30;99.90;;;;;;5268121;28;20024;-74
2022/07/20 00:48:17;;;;;;;5.57;3.05;;;16.60;99.90;;;;;;5267920;28;20024;-74
2022/07/20 00:50:48;;;;;;;5.15;2.72;;;16.60;99.90;;;;;;5252357;28;20078;-74
2022/07/20 00:53:19;;;;;;;5.20;2.70;;;16.60;99.90;;;;;;5279989;28;20024;-74
2022/07/20 00:55:50;;;;;;;5.60;2.75;;;16.70;99.90;;;;;;5289037;28;20032;-74
2022/07/20 00:58:20;;;;;;;6.90;2.97;;;16.70;99.90;;;;;;5288811;28;20023;-75
2022/07/20 01:00:51;;;;;;;4.80;2.58;;;16.80;99.90;;;;;;5289001;28;20486;-75
2022/07/20 01:03:22;;;;;;;3.75;2.00;;;17.00;99.90;;;;;;5293282;28;20489;-75
2022/07/20 01:05:53;;;;;;;5.32;2.42;;;17.20;99.90;;;;;;5293185;28;20030;-73
2022/07/20 01:08:25;;;;;;;4.30;2.58;;;16.90;99.90;;;;;;5293215;28;20016;-74
2022/07/20 01:10:57;;;;;;;5.60;2.45;;;17.10;99.90;;;;;;5293039;28;20061;-74
2022/07/20 01:13:28;;;;;;;4.38;2.45;;;17.40;99.90;;;;;;5292883;28;20023;-74
2022/07/20 01:15:59;;;;;;;3.92;2.42;;;17.10;99.90;;;;;;5292981;28;20024;-73
2022/07/20 01:18:30;;;;;;;4.75;2.40;;;17.40;99.90;;;;;;5292842;28;20028;-73
2022/07/20 01:21:06;;;;;;;6.72;2.08;;;17.40;99.90;;;;;;5292556;28;20081;-74
2022/07/20 01:23:37;;;;;;;9.20;2.22;;;17.40;99.90;;;;;;5292764;28;20028;-74
2022/07/20 01:26:08;;;;;;;4.50;2.13;;;17.60;99.90;;;;;;5292903;28;20026;-74
2022/07/20 01:28:39;;;;;;;5.28;2.25;;;17.50;99.90;;;;;;5274414;28;20019;-73
2022/07/20 01:31:10;;;;;;;6.70;2.60;;;17.70;99.90;;;;;;5292633;28;20077;-74
2022/07/20 01:33:41;;;;;;;6.15;2.45;;;17.60;99.90;;;;;;5292427;28;20497;-74
2022/07/20 01:36:12;;;;;;;6.40;2.50;;;17.90;99.90;;;;;;5292603;28;20038;-74
2022/07/20 01:38:43;;;;;;;5.82;2.40;;;17.90;99.90;;;;;;5292551;28;20068;-74
2022/07/20 01:41:14;;;;;;;6.22;2.47;;;18.00;99.90;;;;;;5292212;28;20036;-73
2022/07/20 01:43:45;;;;;;;4.25;2.03;;;17.80;99.90;;;;;;5292458;28;20028;-73
2022/07/20 01:46:16;;;;;;;3.90;2.40;;;17.90;99.90;;;;;;5292223;28;20027;-74
2022/07/20 01:48:47;;;;;;;6.07;2.63;;;17.60;99.90;;;;;;5292170;28;20024;-73
2022/07/20 01:51:18;;;;;;;4.95;2.47;;;17.90;99.90;;;;;;5289527;28;20110;-74
2022/07/20 01:53:48;;;;;;;7.43;2.97;;;18.00;99.90;;;;;;5292385;28;20023;-73
2022/07/20 01:56:19;;;;;;;6.55;2.33;;;18.20;99.90;;;;;;5292019;28;20051;-74
2022/07/20 01:58:50;;;;;;;5.85;2.70;;;18.40;99.90;;;;;;5291997;28;20479;-72
2022/07/20 02:01:21;;;;;;;7.25;2.50;;;18.50;99.90;;;;;;5273691;28;20126;-73
2022/07/20 02:03:52;;;;;;;7.15;2.85;;;18.30;99.90;;;;;;5292026;28;20055;-74
2022/07/20 02:06:23;;;;;;;7.32;2.90;;;18.20;99.90;;;;;;5292008;28;20024;-73
2022/07/20 02:08:53;;;;;;;6.28;2.80;;;18.30;99.90;;;;;;5291961;28;20443;-73
2022/07/20 02:11:24;;;;;;;4.95;2.80;;;18.30;99.90;;;;;;5291556;28;20031;-73
2022/07/20 02:13:55;;;;;;;8.80;2.70;;;18.40;99.90;;;;;;5273274;28;20031;-73
2022/07/20 02:16:26;;;;;;;4.97;2.72;;;18.30;99.90;;;;;;5273466;28;20478;-73
2022/07/20 02:18:57;;;;;;;7.18;2.72;;;18.30;99.90;;;;;;5291641;28;20035;-75
2022/07/20 02:21:31;;;;;;;7.40;2.70;;;18.30;99.90;;;;;;5291379;28;20035;-74
2022/07/20 02:24:02;;;;;;;6.55;2.83;;;18.20;99.90;;;;;;5273263;28;20027;-74
2022/07/20 02:26:33;;;;;;;5.72;3.10;;;18.10;99.90;;;;;;5291671;28;20533;-75
2022/07/20 02:29:04;;;;;;;4.68;2.58;;;18.30;99.90;;;;;;5291271;28;20031;-74
2022/07/20 02:31:35;;;;;;;8.88;2.95;;;18.40;99.90;;;;;;5291165;28;20076;-73
2022/07/20 02:34:06;;;;;;;7.40;2.60;;;18.10;99.90;;;;;;5272711;28;20483;-73
2022/07/20 02:36:37;;;;;;;10.65;3.00;;;18.10;99.90;;;;;;5291100;28;20074;-73
2022/07/20 02:39:08;;;;;;;7.10;3.10;;;18.20;99.90;;;;;;5291155;28;20028;-74
2022/07/20 02:41:39;;;;;;;5.90;2.78;;;18.30;99.90;;;;;;5291060;28;20070;-73
2022/07/20 02:44:09;;;;;;;4.80;2.70;;;18.50;99.90;;;;;;5291172;28;20428;-73
2022/07/20 02:46:40;;;;;;;6.20;2.40;;;18.10;99.90;;;;;;5291169;28;20024;-73
2022/07/20 02:49:11;;;;;;;10.98;2.65;;;18.10;99.90;;;;;;5290818;28;20039;-74
2022/07/20 02:51:42;;;;;;;4.30;2.70;;;18.30;99.90;;;;;;5272816;28;20058;-73
2022/07/20 02:54:13;;;;;;;5.60;2.47;;;18.10;99.90;;;;;;5290939;28;20028;-73
2022/07/20 02:56:44;;;;;;;4.32;2.50;;;18.20;99.90;;;;;;5290983;28;20035;-74
2022/07/20 02:59:15;;;;;;;6.45;2.58;;;18.30;99.90;;;;;;5290718;28;20110;-73
2022/07/20 03:01:46;;;;;;;8.32;2.55;;;18.30;99.90;;;;;;5272447;28;20043;-74
2022/07/20 03:04:17;;;;;;;5.57;2.70;;;18.30;99.90;;;;;;5272448;28;20024;-73
2022/07/20 03:06:48;;;;;;;6.28;2.60;;;18.40;99.90;;;;;;5290833;28;20031;-74
2022/07/20 03:09:19;;;;;;;3.90;2.53;;;18.50;99.90;;;;;;5290698;28;20027;-74
2022/07/20 03:11:50;;;;;;;6.22;2.85;;;18.50;99.90;;;;;;5290431;28;20031;-73
2022/07/20 03:14:20;;;;;;;7.15;2.55;;;18.60;99.90;;;;;;5290646;28;20087;-73
2022/07/20 03:16:51;;;;;;;6.40;2.63;;;18.70;99.90;;;;;;5290554;28;20474;-74
2022/07/20 03:19:22;;;;;;;12.60;5.00;;;18.80;99.90;;;;;;5290281;28;20057;-74
2022/07/20 03:21:53;;;;;;;6.72;4.07;;;19.00;99.90;;;;;;5290219;28;20034;-73
2022/07/20 03:24:24;;;;;;;11.10;3.80;;;19.10;99.90;;;;;;5289582;28;20020;-73
2022/07/20 03:26:55;;;;;;;11.20;5.25;;;19.00;99.90;;;;;;5290296;28;20031;-73
2022/07/20 03:29:25;;;;;;;12.68;5.20;;;19.20;99.90;;;;;;5272115;28;20039;-73
2022/07/20 03:31:57;;;;;;;11.55;5.32;;;19.20;99.90;;;;;;5290291;27;20489;-75
2022/07/20 03:34:27;;;;;;;16.88;7.13;;;19.30;99.90;;;;;;5290265;28;20035;-74
2022/07/20 03:36:58;;;;;;;13.48;5.63;;;19.30;99.90;;;;;;5290054;28;20031;-73
2022/07/20 03:39:29;;;;;;;13.07;6.13;;;19.60;99.90;;;;;;5290036;28;20028;-73
2022/07/20 03:42:00;;;;;;;16.45;7.53;;;19.70;99.90;;;;;;5289946;28;20062;-73
2022/07/20 03:44:31;;;;;;;16.83;8.63;;;19.90;99.90;;;;;;5290004;28;20015;-74
2022/07/20 03:47:02;;;;;;;17.00;8.30;;;20.00;99.90;;;;;;5289919;28;20034;-73
2022/07/20 03:49:33;;;;;;;17.02;8.10;;;20.10;99.90;;;;;;5289616;28;20043;-74
2022/07/20 03:52:04;;;;;;;15.45;6.60;;;20.20;99.90;;;;;;5289858;28;20023;-73
2022/07/20 03:54:35;;;;;;;13.55;7.35;;;20.40;99.90;;;;;;5289755;28;20024;-75
2022/07/20 03:57:16;;;;;;;15.82;8.45;;;20.40;99.90;;;;;;5289884;27;20407;-75
2022/07/20 03:59:52;;;;;;;17.95;9.20;;;20.40;99.90;;;;;;5271270;28;20028;-75
2022/07/20 04:02:27;;;;;;;17.88;8.43;;;20.50;99.90;;;;;;5289525;28;20027;-75
2022/07/20 04:05:05;;;;;;;16.40;7.93;;;20.70;99.90;;;;;;5289713;28;20034;-75
2022/07/20 04:07:40;;;;;;;13.52;7.15;;;20.90;99.90;;;;;;5289793;28;20034;-75
2022/07/20 04:10:15;;;;;;;12.63;6.97;;;20.80;99.90;;;;;;5289624;28;20152;-75
2022/07/20 04:12:46;;;;;;;12.07;6.97;;;21.00;99.90;;;;;;5289197;28;20031;-74
2022/07/20 04:15:17;;;;;;;14.05;8.02;;;20.90;99.90;;;;;;5289435;28;20023;-73
2022/07/20 04:17:48;;;;;;;12.35;7.28;;;21.00;99.90;;;;;;5289420;28;20056;-73
2022/07/20 04:20:19;;;;;;;14.00;7.35;;;21.10;99.90;;;;;;5287513;28;20040;-74
2022/07/20 04:22:49;;;;;;;17.77;9.02;;;21.10;99.90;;;;;;5282623;28;20035;-75
2022/07/20 04:25:22;;;;;;;13.85;8.27;;;21.20;99.90;;;;;;5289258;28;20024;-74
2022/07/20 04:27:53;;;;;;;14.32;8.23;;;21.20;99.90;;;;;;5277027;28;20020;-73
2022/07/20 04:30:24;;;;;;;14.45;7.65;;;21.10;99.90;;;;;;5268059;28;20387;-74
2022/07/20 04:32:55;;;;;;;13.02;7.63;;;21.00;99.90;;;;;;5268050;28;20016;-73
2022/07/20 04:35:26;;;;;;;12.32;7.22;;;21.00;99.90;;;;;;5267980;28;20034;-73
2022/07/20 04:37:56;;;;;;;11.90;6.90;;;21.00;99.90;;;;;;5286124;28;20020;-73
2022/07/20 04:40:27;;;;;;;10.57;6.20;;;21.20;99.90;;;;;;5288997;28;20047;-72
2022/07/20 04:42:58;;;;;;;9.13;5.75;;;21.60;99.90;;;;;;5288993;28;20031;-73
2022/07/20 04:45:29;;;;;;;9.57;5.45;;;21.70;99.90;;;;;;5285419;28;20538;-74
2022/07/20 04:48:00;;;;;;;7.63;5.22;;;22.00;99.90;;;;;;5267842;28;20024;-74
2022/07/20 04:50:31;;;;;;;9.45;5.30;;;22.00;99.90;;;;;;5267669;28;20063;-74
2022/07/20 04:53:02;;;;;;;8.38;4.97;;;22.00;99.90;;;;;;5268068;28;20027;-73
2022/07/20 04:55:33;;;;;;;7.05;3.90;;;22.30;99.90;;;;;;5267912;28;20028;-75
2022/07/20 04:58:04;;;;;;;7.30;4.13;;;22.00;99.90;;;;;;5267829;28;20024;-74
2022/07/20 05:00:34;;;;;;;7.30;3.40;;;21.90;99.90;;;;;;5267864;28;20040;-73
2022/07/20 05:03:06;;;;;;;4.13;2.80;;;22.20;99.90;;;;;;5249629;28;20035;-75
2022/07/20 05:05:36;;;;;;;5.47;2.50;;;22.20;99.90;;;;;;5267819;28;20052;-74
2022/07/20 05:08:07;;;;;;;6.00;3.55;;;22.40;99.90;;;;;;5267967;28;20059;-73
2022/07/20 05:10:38;;;;;;;7.75;3.10;;;22.50;99.90;;;;;;5270873;28;20378;-74
2022/07/20 05:13:09;;;;;;;4.35;3.47;;;22.70;99.90;;;;;;5282513;28;20024;-75
2022/07/20 05:15:40;;;;;;;4.78;2.80;;;22.80;99.90;;;;;;5285633;28;20544;-75
2022/07/20 05:18:11;;;;;;;6.88;3.15;;;22.80;99.90;;;;;;5285638;28;20082;-75
2022/07/20 05:20:42;;;;;;;13.13;2.30;;;22.80;99.90;;;;;;5286217;28;20523;-74
2022/07/20 05:23:12;;;;;;;4.80;1.85;;;22.90;99.90;;;;;;5280902;28;20039;-74
2022/07/20 05:25:43;;;;;;;6.05;1.90;;;22.90;99.90;;;;;;5286194;28;20046;-75
2022/07/20 05:28:18;;;;;;;4.85;1.92;;;23.10;99.90;;;;;;5288626;28;20023;-73
2022/07/20 05:30:50;;;;;;;2.78;1.52;;;23.30;99.90;;;;;;5287800;28;20107;-75
2022/07/20 05:33:22;;;;;;;4.45;1.48;;;23.30;99.90;;;;;;5287998;28;20031;-75
2022/07/20 05:35:53;;;;;;;4.05;1.55;;;23.30;99.90;;;;;;5269613;28;20356;-75
2022/07/20 05:38:24;;;;;;;3.58;1.58;;;23.30;99.90;;;;;;5288309;28;20035;-75
2022/07/20 05:40:55;;;;;;;3.97;1.80;;;23.30;99.90;;;;;;5287785;28;20019;-73
2022/07/20 05:43:26;;;;;;;7.07;1.67;;;23.50;99.90;;;;;;5286288;28;20024;-75
2022/07/20 05:45:57;;;;;;;2.40;1.00;;;23.40;99.90;;;;;;5287442;28;20034;-73
2022/07/20 05:48:30;;;;;;;4.30;1.10;;;23.70;99.90;;;;;;5283135;28;20107;-75
2022/07/20 05:51:01;;;;;;;2.28;0.80;;;23.70;99.90;;;;;;5290925;28;20387;-75
2022/07/20 05:53:32;;;;;;;6.95;1.02;;;23.80;99.90;;;;;;5273501;28;20020;-73
2022/07/20 05:56:03;;;;;;;4.18;1.00;;;23.80;99.90;;;;;;5291582;28;20074;-75
2022/07/20 05:58:34;;;;;;;5.72;1.10;;;24.00;99.90;;;;;;5291455;28;20044;-74
2022/07/20 06:01:05;;;;;;;2.75;0.80;;;23.90;99.90;;;;;;5280148;28;20099;-76
2022/07/20 06:03:36;;;;;;;2.72;1.48;;;24.00;99.90;;;;;;5286552;28;20383;-75
2022/07/20 06:06:07;;;;;;;3.63;1.58;;;24.10;99.90;;;;;;5290384;28;20038;-75
2022/07/20 06:08:38;;;;;;;6.82;1.52;;;24.00;99.90;;;;;;5290726;28;20118;-73
2022/07/20 06:11:09;;;;;;;5.28;2.00;;;23.70;99.90;;;;;;5290733;28;20106;-76
2022/07/20 06:13:39;;;;;;;5.47;1.73;;;23.70;99.90;;;;;;5291141;28;20023;-74
2022/07/20 06:16:10;;;;;;;3.55;1.38;;;24.20;99.90;;;;;;5290941;28;21390;-75
2022/07/20 06:18:41;;;;;;;7.10;1.40;;;24.60;99.90;;;;;;5290177;28;20363;-76
2022/07/20 06:21:14;;;;;;;7.05;1.45;;;24.70;99.90;;;;;;5248013;28;20039;-74
2022/07/20 06:23:45;;;;;;;4.97;1.02;;;24.50;99.90;;;;;;5288398;28;20020;-77
2022/07/20 06:26:16;;;;;;;3.25;1.10;;;24.20;99.90;;;;;;5276724;28;20083;-74
2022/07/20 06:28:47;;;;;;;3.78;1.60;;;24.00;99.90;;;;;;5288114;28;20020;-73
2022/07/20 06:31:18;;;;;;;3.90;1.20;;;23.80;99.90;;;;;;5291373;28;20455;-76
2022/07/20 06:33:49;;;;;;;4.55;1.10;;;24.50;99.90;;;;;;5291087;28;20028;-74
2022/07/20 06:36:20;;;;;;;3.90;1.33;;;24.30;99.90;;;;;;5291063;28;20087;-74
2022/07/20 06:38:50;;;;;;;3.85;1.00;;;24.70;99.90;;;;;;5290961;28;20047;-74
2022/07/20 06:41:21;;;;;;;3.38;1.17;;;25.10;99.90;;;;;;5290550;28;20490;-74
2022/07/20 06:43:52;;;;;;;3.25;0.95;;;24.80;99.90;;;;;;5286972;28;20085;-75
2022/07/20 06:46:23;;;;;;;2.88;0.85;;;24.80;99.90;;;;;;5288967;28;20026;-73
2022/07/20 06:48:54;;;;;;;4.75;1.00;;;24.40;99.90;;;;;;5290196;28;20398;-73
2022/07/20 06:51:25;;;;;;;2.25;0.95;;;24.10;99.90;;;;;;5283321;28;20040;-73
2022/07/20 06:53:56;;;;;;;5.35;1.10;;;24.60;99.90;;;;;;5290465;28;20032;-74
2022/07/20 06:56:27;;;;;;;5.50;1.42;;;24.90;99.90;;;;;;5290884;28;20007;-74
2022/07/20 06:58:58;;;;;;;1.77;0.90;;;24.80;99.90;;;;;;5290638;28;20032;-74
2022/07/20 07:01:29;;;;;;;4.50;0.90;;;25.20;99.90;;;;;;5290679;28;20095;-74
2022/07/20 07:04:00;;;;;;;4.57;0.95;;;25.00;99.90;;;;;;5290369;28;20032;-74
2022/07/20 07:06:32;;;;;;;1.60;1.10;;;25.40;99.90;;;;;;5290614;28;20443;-76
2022/07/20 07:09:03;;;;;;;4.25;1.08;;;25.30;99.90;;;;;;5290560;28;20464;-75
2022/07/20 07:11:35;;;;;;;4.15;1.00;;;25.70;99.90;;;;;;5290400;28;20103;-75
2022/07/20 07:14:07;;;;;;;4.15;1.08;;;25.40;99.90;;;;;;5288785;28;20550;-74
2022/07/20 07:16:38;;;;;;;2.80;1.05;;;25.70;99.90;;;;;;5289170;28;20383;-75
2022/07/20 07:19:09;;;;;;;4.93;0.70;;;25.60;99.90;;;;;;5288740;28;20043;-74
2022/07/20 07:21:40;;;;;;;4.20;1.30;;;25.00;99.90;;;;;;5288475;28;20036;-75
2022/07/20 07:24:11;;;;;;;3.75;1.80;;;24.70;99.90;;;;;;5287168;28;20065;-76
2022/07/20 07:26:42;;;;;;;3.42;1.27;;;25.10;99.90;;;;;;5288687;28;20028;-76
2022/07/20 07:29:14;;;;;;;3.85;1.23;;;24.80;99.90;;;;;;5288692;28;20028;-73
2022/07/20 07:31:45;;;;;;;5.63;1.60;;;24.40;99.90;;;;;;5270246;28;20028;-75
2022/07/20 07:34:16;;;;;;;4.97;1.95;;;24.10;99.90;;;;;;5289273;28;20026;-73
2022/07/20 07:36:47;;;;;;;4.72;1.58;;;24.80;99.90;;;;;;5282984;28;20470;-72
2022/07/20 07:39:18;;;;;;;3.60;1.75;;;24.80;99.90;;;;;;5285823;28;20012;-75
2022/07/20 07:41:49;;;;;;;3.15;1.48;;;25.00;99.90;;;;;;5282185;28;20037;-73
2022/07/20 07:44:20;;;;;;;6.50;1.88;;;25.50;99.90;;;;;;5288531;28;20023;-75
2022/07/20 07:46:51;;;;;;;2.58;1.30;;;25.00;99.90;;;;;;5288304;28;20463;-74
2022/07/20 07:49:22;;;;;;;4.68;1.92;;;24.70;99.90;;;;;;5288772;28;20039;-74
2022/07/20 07:51:53;;;;;;;6.38;1.40;;;25.50;99.90;;;;;;5289278;28;20031;-73
2022/07/20 07:54:24;;;;;;;4.63;1.55;;;25.00;99.90;;;;;;5271515;28;20076;-73
2022/07/20 07:56:55;;;;;;;6.35;1.80;;;25.30;99.90;;;;;;5288705;28;20035;-73
2022/07/20 07:59:25;;;;;;;3.45;1.20;;;25.90;99.90;;;;;;5288338;28;20499;-74
2022/07/20 08:01:56;;;;;;;4.28;1.30;;;25.60;99.90;;;;;;5287948;28;20110;-73
2022/07/20 08:04:27;;;;;;;3.72;1.23;;;24.80;99.90;;;;;;5288047;28;20094;-74
2022/07/20 08:06:58;;;;;;;3.83;1.45;;;25.20;99.90;;;;;;5271423;28;20392;-72
2022/07/20 08:09:29;;;;;;;5.55;1.70;;;25.70;99.90;;;;;;5287852;28;20024;-73
2022/07/20 08:12:01;;;;;;;8.63;1.90;;;25.60;99.90;;;;;;5269002;28;20027;-75
2022/07/20 08:14:32;;;;;;;4.45;1.55;;;25.10;99.90;;;;;;5288099;28;20352;-75
2022/07/20 08:17:03;;;;;;;4.03;1.20;;;25.20;99.90;;;;;;5269237;28;20034;-74
2022/07/20 08:19:34;;;;;;;5.85;1.33;;;25.00;99.90;;;;;;5269629;28;20034;-74
2022/07/20 08:22:05;;;;;;;4.50;1.27;;;25.20;99.90;;;;;;5287774;28;20394;-75
2022/07/20 08:24:39;;;;;;;4.63;1.00;;;25.10;99.90;;;;;;5287958;28;20031;-76
2022/07/20 08:27:10;;;;;;;4.10;1.00;;;25.70;99.90;;;;;;5287680;28;20028;-76
2022/07/20 08:29:41;;;;;;;6.47;2.20;;;25.60;99.90;;;;;;5287643;28;20399;-76
2022/07/20 08:32:11;;;;;;;5.45;2.28;;;25.80;99.90;;;;;;5287484;28;20015;-76
2022/07/20 08:34:42;;;;;;;6.05;3.10;;;24.90;99.90;;;;;;5269448;28;20028;-73
2022/07/20 08:37:13;;;;;;;6.53;2.85;;;24.80;99.90;;;;;;5286135;28;20024;-76
2022/07/20 08:39:44;;;;;;;8.18;2.20;;;25.20;99.90;;;;;;5286916;28;20027;-75
2022/07/20 08:42:16;;;;;;;3.30;1.60;;;25.00;99.90;;;;;;5269959;28;20031;-76
2022/07/20 08:44:47;;;;;;;3.05;1.10;;;25.20;99.90;;;;;;5269680;28;20051;-76
2022/07/20 08:47:21;;;;;;;4.18;1.30;;;25.50;99.90;;;;;;5287748;28;20104;-75
2022/07/20 08:49:53;;;;;;;5.32;1.23;;;25.40;99.90;;;;;;5284346;28;20086;-74
2022/07/20 08:52:23;;;;;;;8.32;3.78;;;25.10;99.90;;;;;;5288804;28;20019;-73
2022/07/20 08:55:01;;;;;;;6.00;3.08;;;25.20;99.90;;;;;;5288464;28;20023;-76
2022/07/20 08:57:32;;;;;;;3.95;1.73;;;25.90;99.90;;;;;;5288403;28;20019;-75
2022/07/20 09:00:05;;;;;;;4.80;1.30;;;25.70;99.90;;;;;;5288420;28;20035;-77
2022/07/20 09:02:57;;;;;;;7.80;2.40;;;25.10;99.90;;;;;;5288235;28;20032;-76
2022/07/20 09:05:31;;;;;;;10.93;3.20;;;25.30;99.90;;;;;;5288768;28;20035;-76
2022/07/20 09:08:03;;;;;;;9.93;4.15;;;26.20;99.90;;;;;;5288549;28;20027;-75
2022/07/20 09:10:37;;;;;;;8.18;3.65;;;26.00;99.90;;;;;;5288508;28;20024;-75
2022/07/20 09:13:18;;;;;;;5.38;2.45;;;25.40;99.90;;;;;;5278996;28;20042;-74
2022/07/20 09:15:53;;;;;;;8.77;3.13;;;25.10;99.90;;;;;;5285438;28;20015;-75
2022/07/20 09:18:31;;;;;;;6.70;3.70;;;24.90;99.90;;;;;;5270304;28;20536;-75
2022/07/20 09:21:05;;;;;;;6.25;2.30;;;25.40;99.90;;;;;;5277554;28;20042;-75
2022/07/20 09:23:42;;;;;;;7.68;3.65;;;25.70;99.90;;;;;;5275283;28;20051;-75
2022/07/20 09:26:16;;;;;;;9.68;2.60;;;25.70;99.90;;;;;;5276189;28;20027;-75
2022/07/20 09:28:48;;;;;;;6.05;3.28;;;25.60;99.90;;;;;;5286316;28;20020;-75
2022/07/20 09:31:26;;;;;;;5.97;1.98;;;25.90;99.90;;;;;;5293002;28;20030;-75
2022/07/20 09:34:03;;;;;;;6.32;2.10;;;25.70;99.90;;;;;;5292708;28;20034;-76
2022/07/20 09:36:38;;;;;;;5.85;1.25;;;25.50;99.90;;;;;;5292805;28;20020;-74
2022/07/20 09:39:18;;;;;;;4.75;1.92;;;26.50;99.90;;;;;;5292462;28;20070;-76
2022/07/20 09:41:56;;;;;;;4.47;1.80;;;26.00;99.90;;;;;;5292283;28;20035;-76
2022/07/20 09:44:31;;;;;;;5.43;2.50;;;25.80;99.90;;;;;;5292758;28;20022;-76
2022/07/20 09:47:11;;;;;;;3.47;1.50;;;25.80;99.90;;;;;;5292345;28;20028;-75
2022/07/20 09:49:42;;;;;;;5.35;1.98;;;25.80;99.90;;;;;;5291553;28;20096;-74
2022/07/20 09:52:13;;;;;;;5.97;1.80;;;25.30;99.90;;;;;;5291775;28;20024;-73
2022/07/20 09:54:44;;;;;;;4.82;2.10;;;26.10;99.90;;;;;;5292029;28;20016;-73
2022/07/20 09:57:20;;;;;;;8.57;3.10;;;25.90;99.90;;;;;;5291867;28;20030;-73
2022/07/20 09:59:52;;;;;;;7.32;2.38;;;25.50;99.90;;;;;;5291991;28;20037;-75
2022/07/20 10:02:25;;;;;;;3.47;1.02;;;25.40;99.90;;;;;;5291864;28;20024;-75
2022/07/20 10:04:57;;;;;;;10.50;3.45;;;25.60;99.90;;;;;;5283269;28;20020;-74
2022/07/20 10:07:28;;;;;;;15.98;2.88;;;25.50;99.90;;;;;;5291912;28;20081;-73
2022/07/20 10:10:00;;;;;;;5.80;2.40;;;25.70;99.90;;;;;;5273729;28;20039;-75
2022/07/20 10:12:32;;;;;;;4.47;1.70;;;25.90;99.90;;;;;;5284107;28;20091;-73
2022/07/20 10:15:08;;;;;;;3.03;1.65;;;25.90;99.90;;;;;;5285437;28;20023;-74
2022/07/20 10:17:41;;;;;;;3.55;1.20;;;25.50;99.90;;;;;;5289090;28;20466;-73
2022/07/20 10:20:32;;;;;;;4.65;2.58;;;25.50;99.90;;;;;;5288351;28;20046;-73
2022/07/20 10:23:16;;;;;;;5.05;1.77;;;25.50;99.90;;;;;;5288540;28;20415;-73
2022/07/20 10:25:47;;;;;;;4.38;1.30;;;25.50;99.90;;;;;;5285839;28;20459;-73
2022/07/20 10:28:34;;;;;;;2.83;1.55;;;25.20;99.90;;;;;;5290012;28;20197;-74
2022/07/20 10:31:11;;;;;;;6.90;1.60;;;24.90;99.90;;;;;;5269005;28;20062;-74
2022/07/20 10:33:42;;;;;;;7.18;2.58;;;25.10;99.90;;;;;;5289444;28;20016;-76
2022/07/20 10:39:43;;;;;;;4.90;1.92;;;25.90;99.90;;;;;;5287797;28;20035;-77
2022/07/20 10:42:28;;;;;;;3.55;1.80;;;25.40;99.90;;;;;;5279541;28;20122;-74
2022/07/20 10:45:29;;;;;;;6.88;2.30;;;25.70;99.90;;;;;;5290631;28;20026;-73
2022/07/20 10:48:12;;;;;;;5.07;1.98;;;25.50;99.90;;;;;;5269558;28;20126;-74
2022/07/20 10:50:45;;;;;;;4.72;1.70;;;26.30;99.90;;;;;;5290473;28;20048;-73
2022/07/20 10:53:16;;;;;;;6.53;1.73;;;26.20;99.90;;;;;;5290624;28;20455;-76
2022/07/20 10:55:53;;;;;;;8.85;3.10;;;25.40;99.90;;;;;;5290626;28;20034;-74
2022/07/20 10:58:27;;;;;;;6.43;2.30;;;25.90;99.90;;;;;;5290699;28;20046;-75
2022/07/20 11:01:03;;;;;;;4.10;1.38;;;26.30;99.90;;;;;;5284155;28;20028;-73
2022/07/20 11:03:45;;;;;;;9.18;2.83;;;26.40;99.90;;;;;;5290436;28;20024;-73
2022/07/20 11:06:18;;;;;;;4.13;1.92;;;25.70;99.90;;;;;;5274339;28;20056;-76
2022/07/20 11:09:02;;;;;;;12.85;3.58;;;25.70;99.90;;;;;;5288847;28;20011;-75
2022/07/20 11:11:35;;;;;;;8.02;3.10;;;26.00;99.90;;;;;;5270613;28;20489;-73
2022/07/20 11:14:11;;;;;;;11.68;4.25;;;25.70;99.90;;;;;;5288936;28;20027;-74
2022/07/20 11:16:42;;;;;;;2.67;1.38;;;25.70;99.90;;;;;;5271699;28;20097;-74
2022/07/20 11:19:13;;;;;;;4.15;0.90;;;26.40;99.90;;;;;;5288373;28;20036;-77
2022/07/20 11:21:44;;;;;;;6.65;1.25;;;25.90;99.90;;;;;;5289349;28;20069;-76
2022/07/20 11:24:24;;;;;;;9.63;6.22;;;26.30;99.90;;;;;;5289704;28;20028;-74
2022/07/20 11:26:55;;;;;;;;;;;25.60;99.90;;;;;;5271701;28;20366;-76
2022/07/20 11:29:27;;;;;;;5.50;2.90;;;25.60;99.90;;;;;;5282488;28;19903;-74
2022/07/20 11:32:09;;;;;;;3.65;1.10;;;26.50;99.90;;;;;;5289457;28;20092;-74
2022/07/20 11:34:49;;;;;;;4.18;1.17;;;26.40;99.90;;;;;;5268902;28;20056;-74
2022/07/20 11:37:21;;;;;;;2.75;1.10;;;26.20;99.90;;;;;;5289328;28;20399;-74
2022/07/20 11:39:52;;;;;;;3.20;1.05;;;25.60;99.90;;;;;;5288850;28;20054;-75
2022/07/20 11:42:23;;;;;;;3.75;0.93;;;26.40;99.90;;;;;;5270817;28;20038;-75
2022/07/20 11:44:59;;;;;;;5.57;1.25;;;26.30;99.90;;;;;;5281518;28;20046;-73
2022/07/20 11:47:31;;;;;;;2.55;0.93;;;26.30;99.90;;;;;;5285424;28;20030;-73
2022/07/20 11:50:09;;;;;;;3.72;1.30;;;26.00;99.90;;;;;;5289068;28;20115;-75
2022/07/20 11:52:41;;;;;;;3.97;1.20;;;26.60;99.90;;;;;;5287152;28;20088;-75
2022/07/20 11:55:12;;;;;;;4.97;1.50;;;26.40;99.90;;;;;;5281409;28;20019;-75
2022/07/20 11:57:43;;;;;;;3.83;1.30;;;26.00;99.90;;;;;;5274648;28;20031;-74
2022/07/20 12:00:18;;;;;;;3.50;1.13;;;25.50;99.90;;;;;;5289390;28;20031;-73
2022/07/20 12:02:52;;;;;;;2.35;1.30;;;25.70;99.90;;;;;;5289337;28;20039;-75
2022/07/20 12:05:24;;;;;;;5.95;1.20;;;25.60;99.90;;;;;;5287819;28;20023;-74
2022/07/20 12:08:12;;;;;;;3.83;1.10;;;26.40;99.90;;;;;;5289262;28;20019;-75
2022/07/20 12:10:44;;;;;;;4.53;1.02;;;26.60;99.90;;;;;;5288948;28;20062;-75
2022/07/20 12:13:16;;;;;;;3.75;1.55;;;26.00;99.90;;;;;;5289412;28;20427;-74
2022/07/20 12:15:59;;;;;;;4.07;1.10;;;25.80;99.90;;;;;;5289392;28;20027;-74
2022/07/20 12:18:47;;;;;;;2.80;1.20;;;26.70;99.90;;;;;;5289419;28;20036;-74
2022/07/20 12:21:21;;;;;;;4.38;1.27;;;26.90;99.90;;;;;;5289277;28;20047;-74
2022/07/20 12:23:54;;;;;;;2.60;1.10;;;26.40;99.90;;;;;;5270803;28;20031;-74
2022/07/20 12:26:32;;;;;;;5.85;1.30;;;26.00;99.90;;;;;;5289112;28;20019;-75
2022/07/20 12:29:22;;;;;;;3.03;1.50;;;26.70;99.90;;;;;;5289464;28;20513;-75
2022/07/20 12:32:07;;;;;;;4.00;1.23;;;26.90;99.90;;;;;;5288610;28;20016;-74
2022/07/20 12:34:52;;;;;;;9.25;1.50;;;25.90;99.90;;;;;;5283546;28;20084;-74
2022/07/20 12:37:24;;;;;;;4.53;1.38;;;26.70;99.90;;;;;;5288649;28;20410;-75
2022/07/20 12:39:57;;;;;;;3.42;1.35;;;27.20;99.90;;;;;;5287942;28;20070;-76
2022/07/20 12:42:28;;;;;;;2.03;0.95;;;27.30;99.90;;;;;;5279773;28;20036;-74
2022/07/20 12:45:02;;;;;;;2.75;1.27;;;26.80;99.90;;;;;;5288593;28;20069;-73
2022/07/20 12:47:34;;;;;;;3.72;1.55;;;26.20;99.90;;;;;;5288652;28;20104;-75
2022/07/20 12:50:05;;;;;;;7.13;3.58;;;26.30;99.90;;;;;;5288070;28;20044;-74
2022/07/20 12:52:36;;;;;;;4.78;1.98;;;26.00;99.90;;;;;;5289656;28;20035;-74
2022/07/20 12:55:07;;;;;;;3.00;1.10;;;26.10;99.90;;;;;;5275449;28;20053;-73
2022/07/20 12:57:38;;;;;;;3.50;1.00;;;26.50;99.90;;;;;;5293289;28;20032;-74
2022/07/20 13:00:10;;;;;;;4.35;1.40;;;27.20;99.90;;;;;;5293316;28;20035;-75
2022/07/20 13:02:41;;;;;;;3.55;1.40;;;27.30;99.90;;;;;;5292161;28;20023;-75
2022/07/20 13:05:11;;;;;;;2.72;1.33;;;27.30;99.90;;;;;;5273382;28;20016;-75
2022/07/20 13:07:46;;;;;;;4.05;1.50;;;27.10;99.90;;;;;;5291161;28;20055;-74
2022/07/20 13:10:17;;;;;;;1.80;1.00;;;27.00;99.90;;;;;;5291099;28;20019;-75
2022/07/20 13:12:48;;;;;;;5.05;1.17;;;26.90;99.90;;;;;;5291631;28;20355;-74
2022/07/20 13:15:19;;;;;;;3.03;1.17;;;26.60;99.90;;;;;;5291992;28;20030;-73
2022/07/20 13:17:50;;;;;;;2.80;1.40;;;26.20;99.90;;;;;;5291617;28;20076;-74